createdAt,value
2018-03-06T00:00:21.012Z,79.49
2018-03-06T00:02:48.648Z,79.47
2018-03-06T00:05:16.599Z,79.53
2018-03-06T00:07:44.206Z,79.61
2018-03-06T00:10:11.822Z,79.55
2018-03-06T00:12:39.414Z,79.63
2018-03-06T00:15:07.339Z,79.85
2018-03-06T00:17:35.053Z,79.73
2018-03-06T00:20:02.653Z,79.98
2018-03-06T00:22:30.376Z,79.85
2018-03-06T00:24:57.965Z,79.77
2018-03-06T00:27:25.566Z,79.85
2018-03-06T00:29:53.177Z,79.89
2018-03-06T00:32:20.787Z,79.93
2018-03-06T00:34:48.487Z,80.28
2018-03-06T00:37:16.075Z,80.25
2018-03-06T00:39:43.663Z,80.24
2018-03-06T00:42:11.307Z,80.26
2018-03-06T00:44:39.126Z,80.24
2018-03-06T00:47:06.841Z,80.69
2018-03-06T00:49:34.490Z,80.57
2018-03-06T00:52:02.150Z,80.55
2018-03-06T00:54:29.741Z,80.52
2018-03-06T00:56:57.325Z,80.79
2018-03-06T00:59:24.987Z,80.70
2018-03-06T01:01:52.623Z,80.65
2018-03-06T01:04:20.208Z,80.77
2018-03-06T01:06:47.876Z,80.72
2018-03-06T01:09:15.519Z,80.73
2018-03-06T01:11:43.123Z,80.59
2018-03-06T01:14:10.753Z,80.50
2018-03-06T01:16:38.366Z,80.44
2018-03-06T01:19:06.005Z,80.52
2018-03-06T01:21:33.783Z,80.52
2018-03-06T01:24:01.791Z,80.49
2018-03-06T01:26:29.372Z,80.45
2018-03-06T01:28:56.990Z,80.39
2018-03-06T01:31:24.630Z,80.56
2018-03-06T01:33:52.228Z,80.70
2018-03-06T01:36:19.870Z,80.71
2018-03-06T01:38:47.457Z,80.69
2018-03-06T01:41:15.039Z,80.62
2018-03-06T01:43:42.663Z,80.54
2018-03-06T01:46:10.260Z,80.60
2018-03-06T01:48:38.739Z,80.73
2018-03-06T01:51:07.087Z,80.77
2018-03-06T01:53:35.187Z,80.98
2018-03-06T01:56:03.390Z,81.02
2018-03-06T01:58:31.324Z,81.01
2018-03-06T02:00:59.334Z,81.01
2018-03-06T02:03:27.393Z,81.15
2018-03-06T02:05:55.429Z,81.36
2018-03-06T02:08:23.544Z,81.56
2018-03-06T02:10:51.160Z,81.82
2018-03-06T02:13:18.827Z,81.85
2018-03-06T02:15:46.507Z,82.00
2018-03-06T02:18:14.134Z,82.00
2018-03-06T02:20:41.786Z,82.26
2018-03-06T02:23:09.423Z,82.19
2018-03-06T02:25:37.125Z,82.10
2018-03-06T02:28:04.771Z,82.18
2018-03-06T02:30:32.568Z,82.27
2018-03-06T02:33:01.059Z,82.62
2018-03-06T02:35:28.704Z,82.49
2018-03-06T02:37:56.332Z,82.47
2018-03-06T02:40:23.910Z,82.60
2018-03-06T02:42:51.528Z,82.67
2018-03-06T02:45:19.221Z,82.83
2018-03-06T02:47:46.861Z,82.70
2018-03-06T02:50:14.450Z,82.76
2018-03-06T02:52:42.141Z,82.94
2018-03-06T02:55:09.981Z,82.90
2018-03-06T02:57:37.574Z,82.97
2018-03-06T03:00:05.300Z,83.28
2018-03-06T03:02:33.012Z,83.24
2018-03-06T03:05:00.625Z,83.24
2018-03-06T03:07:28.627Z,83.75
2018-03-06T03:09:56.295Z,83.67
2018-03-06T03:12:24.052Z,83.61
2018-03-06T03:14:52.129Z,83.57
2018-03-06T03:17:19.840Z,83.53
2018-03-06T03:19:47.464Z,83.50
2018-03-06T03:22:15.123Z,83.91
2018-03-06T03:24:42.787Z,84.56
2018-03-06T03:27:10.484Z,84.61
2018-03-06T03:29:38.077Z,84.51
2018-03-06T03:32:05.702Z,84.55
2018-03-06T03:34:33.348Z,84.66
2018-03-06T03:37:01.002Z,84.65
2018-03-06T03:39:28.693Z,84.86
2018-03-06T03:41:56.334Z,84.77
2018-03-06T03:44:24.043Z,84.65
2018-03-06T03:46:51.668Z,84.52
2018-03-06T03:49:19.805Z,84.70
2018-03-06T03:51:47.453Z,84.78
2018-03-06T03:54:15.076Z,84.96
2018-03-06T03:56:42.770Z,85.03
2018-03-06T03:59:10.429Z,85.01
2018-03-06T04:01:38.089Z,85.38
2018-03-06T04:04:05.694Z,85.33
2018-03-06T04:06:33.561Z,85.24
2018-03-06T04:09:01.227Z,85.50
2018-03-06T04:11:28.840Z,85.61
2018-03-06T04:13:56.474Z,85.60
2018-03-06T04:16:24.148Z,85.56
2018-03-06T04:18:51.852Z,85.72
2018-03-06T04:21:19.480Z,85.96
2018-03-06T04:23:47.158Z,85.96
2018-03-06T04:26:14.819Z,85.91
2018-03-06T04:28:42.435Z,85.71
2018-03-06T04:31:10.050Z,85.56
2018-03-06T04:33:37.693Z,86.19
2018-03-06T04:36:05.352Z,85.90
2018-03-06T04:38:33.026Z,86.04
2018-03-06T04:41:00.663Z,86.03
2018-03-06T04:43:28.309Z,86.31
2018-03-06T04:45:56.050Z,86.39
2018-03-06T04:48:23.675Z,86.54
2018-03-06T04:50:51.298Z,86.50
2018-03-06T04:53:18.915Z,86.73
2018-03-06T04:55:46.514Z,86.54
2018-03-06T04:58:14.169Z,86.43
2018-03-06T05:00:41.857Z,86.44
2018-03-06T05:03:09.479Z,86.58
2018-03-06T05:05:37.733Z,86.48
2018-03-06T05:08:05.374Z,86.88
2018-03-06T05:10:32.968Z,86.62
2018-03-06T05:13:00.610Z,86.55
2018-03-06T05:15:28.248Z,86.57
2018-03-06T05:17:55.856Z,86.54
2018-03-06T05:20:24.406Z,86.46
2018-03-06T05:22:53.528Z,86.39
2018-03-06T05:25:21.197Z,86.38
2018-03-06T05:27:48.879Z,86.28
2018-03-06T05:30:16.470Z,86.18
2018-03-06T05:32:44.139Z,86.07
2018-03-06T05:35:11.828Z,86.05
2018-03-06T05:37:39.477Z,86.37
2018-03-06T05:40:07.097Z,86.47
2018-03-06T05:42:34.758Z,86.43
2018-03-06T05:45:02.725Z,86.44
2018-03-06T05:47:30.336Z,86.52
2018-03-06T05:49:57.984Z,86.80
2018-03-06T05:52:25.683Z,87.42
2018-03-06T05:54:53.277Z,87.26
2018-03-06T05:57:20.873Z,87.06
2018-03-06T05:59:48.571Z,87.01
2018-03-06T06:02:16.213Z,86.87
2018-03-06T06:04:43.859Z,86.73
2018-03-06T06:07:11.537Z,86.61
2018-03-06T06:09:39.153Z,86.50
2018-03-06T06:12:06.872Z,86.40
2018-03-06T06:14:34.557Z,86.29
2018-03-06T06:17:02.165Z,86.33
2018-03-06T06:19:29.789Z,86.52
2018-03-06T06:21:57.449Z,86.46
2018-03-06T06:24:25.125Z,86.33
2018-03-06T06:26:52.650Z,86.15
2018-03-06T06:29:20.320Z,86.08
2018-03-06T06:31:47.930Z,86.01
2018-03-06T06:34:16.056Z,85.95
2018-03-06T06:36:43.668Z,86.00
2018-03-06T06:39:11.261Z,86.05
2018-03-06T06:41:38.914Z,86.25
2018-03-06T06:44:06.475Z,86.60
2018-03-06T06:46:34.077Z,86.69
2018-03-06T06:49:01.690Z,86.88
2018-03-06T06:51:29.296Z,87.71
2018-03-06T06:53:56.945Z,87.68
2018-03-06T06:56:24.526Z,87.64
2018-03-06T06:58:52.189Z,87.84
2018-03-06T07:01:19.827Z,88.06
2018-03-06T07:03:47.387Z,88.42
2018-03-06T07:06:15.260Z,88.14
2018-03-06T07:08:42.895Z,88.06
2018-03-06T07:11:10.531Z,87.96
2018-03-06T07:13:38.212Z,87.99
2018-03-06T07:16:05.837Z,87.82
2018-03-06T07:18:34.390Z,88.04
2018-03-06T07:21:01.974Z,87.92
2018-03-06T07:23:29.661Z,87.90
2018-03-06T07:25:57.252Z,88.07
2018-03-06T07:28:24.845Z,87.73
2018-03-06T07:30:52.558Z,87.49
2018-03-06T07:33:20.144Z,87.38
2018-03-06T07:35:47.740Z,87.24
2018-03-06T07:38:15.417Z,87.24
2018-03-06T07:40:43.005Z,87.06
2018-03-06T07:43:10.573Z,86.91
2018-03-06T07:45:38.203Z,86.67
2018-03-06T07:48:05.823Z,86.55
2018-03-06T07:50:33.536Z,86.25
2018-03-06T07:53:01.446Z,86.03
2018-03-06T07:55:29.027Z,86.01
2018-03-06T07:57:56.640Z,85.62
2018-03-06T08:00:24.374Z,85.45
2018-03-06T08:02:51.957Z,84.88
2018-03-06T08:05:19.768Z,84.42
2018-03-06T08:07:47.405Z,84.08
2018-03-06T08:10:15.215Z,83.86
2018-03-06T08:12:42.877Z,83.73
2018-03-06T08:15:10.493Z,83.42
2018-03-06T08:17:38.093Z,83.25
2018-03-06T08:20:05.735Z,83.13
2018-03-06T08:22:33.422Z,83.00
2018-03-06T08:25:01.012Z,82.39
2018-03-06T08:27:28.632Z,82.29
2018-03-06T08:29:56.227Z,82.66
2018-03-06T08:32:23.891Z,82.51
2018-03-06T08:34:51.471Z,82.02
2018-03-06T08:37:19.104Z,81.40
2018-03-06T08:39:46.785Z,81.03
2018-03-06T08:42:14.373Z,80.57
2018-03-06T08:44:41.958Z,79.74
2018-03-06T08:47:09.595Z,79.36
2018-03-06T08:49:37.246Z,79.12
2018-03-06T08:54:31.730Z,77.61
2018-03-06T08:56:59.346Z,76.05
2018-03-06T08:59:26.919Z,75.06
2018-03-06T09:01:54.626Z,74.99
2018-03-06T09:04:22.200Z,74.27
2018-03-06T09:06:49.780Z,73.88
2018-03-06T09:09:17.420Z,73.67
2018-03-06T09:11:45.007Z,73.55
2018-03-06T09:14:12.606Z,73.22
2018-03-06T09:16:40.219Z,73.47
2018-03-06T09:19:08.205Z,73.19
2018-03-06T09:21:36.060Z,73.06
2018-03-06T09:24:03.613Z,72.52
2018-03-06T09:26:31.226Z,72.20
2018-03-06T09:28:58.898Z,71.73
2018-03-06T09:31:26.469Z,71.28
2018-03-06T09:33:54.109Z,70.23
2018-03-06T09:36:21.762Z,70.79
2018-03-06T09:38:49.343Z,69.67
2018-03-06T09:41:16.915Z,69.99
2018-03-06T09:43:44.545Z,70.25
2018-03-06T09:46:12.127Z,69.65
2018-03-06T09:48:39.778Z,69.50
2018-03-06T09:51:07.371Z,68.84
2018-03-06T09:53:34.953Z,68.77
2018-03-06T09:56:02.954Z,67.50
2018-03-06T09:58:30.549Z,66.77
2018-03-06T10:00:58.216Z,66.74
2018-03-06T10:03:25.789Z,67.10
2018-03-06T10:05:53.354Z,66.14
2018-03-06T10:08:20.944Z,65.10
2018-03-06T10:10:48.599Z,65.81
2018-03-06T10:13:16.205Z,65.92
2018-03-06T10:15:43.802Z,65.61
2018-03-06T10:18:11.419Z,64.63
2018-03-06T10:20:38.993Z,63.71
2018-03-06T10:23:06.582Z,63.64
2018-03-06T10:25:34.171Z,63.29
2018-03-06T10:28:01.826Z,62.63
2018-03-06T10:30:29.501Z,63.19
2018-03-06T10:32:57.091Z,62.78
2018-03-06T10:35:24.715Z,61.68
2018-03-06T10:37:52.364Z,60.58
2018-03-06T10:40:19.930Z,60.65
2018-03-06T10:42:47.514Z,59.38
2018-03-06T10:45:15.162Z,59.59
2018-03-06T10:47:42.823Z,59.09
2018-03-06T10:50:10.438Z,58.68
2018-03-06T10:52:38.034Z,56.42
2018-03-06T10:55:05.723Z,56.70
2018-03-06T10:57:33.269Z,56.61
2018-03-06T11:00:00.926Z,56.05
2018-03-06T11:02:32.381Z,55.66
2018-03-06T11:05:00.068Z,54.98
2018-03-06T11:07:27.662Z,53.18
2018-03-06T11:09:55.282Z,52.67
2018-03-06T11:12:23.118Z,53.73
2018-03-06T11:14:50.682Z,52.45
2018-03-06T11:17:18.286Z,51.24
2018-03-06T11:19:45.914Z,51.97
2018-03-06T11:22:13.718Z,52.90
2018-03-06T11:24:41.308Z,52.90
2018-03-06T11:27:08.918Z,52.58
2018-03-06T11:29:36.573Z,51.89
2018-03-06T11:32:04.142Z,51.99
2018-03-06T11:34:31.724Z,52.33
2018-03-06T11:36:59.344Z,52.61
2018-03-06T11:39:26.929Z,51.84
2018-03-06T11:41:54.577Z,51.88
2018-03-06T11:44:23.004Z,51.33
2018-03-06T11:46:50.569Z,51.47
2018-03-06T11:49:18.296Z,51.30
2018-03-06T11:51:45.913Z,52.26
2018-03-06T11:54:13.494Z,52.43
2018-03-06T11:56:41.169Z,52.32
2018-03-06T11:59:08.766Z,52.00
2018-03-06T12:01:36.681Z,52.01
2018-03-06T12:04:04.305Z,51.33
2018-03-06T12:06:31.894Z,52.10
2018-03-06T12:08:59.558Z,52.38
2018-03-06T12:11:27.192Z,52.22
2018-03-06T12:13:54.842Z,51.97
2018-03-06T12:16:22.429Z,51.67
2018-03-06T12:18:50.032Z,51.98
2018-03-06T12:21:17.674Z,52.35
2018-03-06T12:23:45.269Z,51.63
2018-03-06T12:26:12.942Z,52.03
2018-03-06T12:28:40.529Z,51.39
2018-03-06T12:31:08.138Z,51.12
2018-03-06T12:33:35.755Z,51.03
2018-03-06T12:36:03.354Z,51.61
2018-03-06T12:38:30.983Z,50.61
2018-03-06T12:40:58.818Z,49.99
2018-03-06T12:43:26.640Z,49.55
2018-03-06T12:45:54.239Z,49.25
2018-03-06T12:48:21.841Z,50.05
2018-03-06T12:50:49.528Z,50.34
2018-03-06T12:53:17.117Z,48.54
2018-03-06T12:55:44.718Z,49.30
2018-03-06T12:58:12.315Z,49.16
2018-03-06T13:00:40.474Z,49.41
2018-03-06T13:03:08.095Z,50.11
2018-03-06T13:05:36.026Z,49.69
2018-03-06T13:08:03.640Z,50.09
2018-03-06T13:10:34.409Z,50.26
2018-03-06T13:13:02.045Z,49.25
2018-03-06T13:15:29.716Z,49.36
2018-03-06T13:17:57.316Z,50.40
2018-03-06T13:20:24.909Z,50.45
2018-03-06T13:22:52.509Z,50.60
2018-03-06T13:25:20.077Z,50.05
2018-03-06T13:27:47.685Z,50.23
2018-03-06T13:30:15.273Z,50.41
2018-03-06T13:32:42.975Z,50.46
2018-03-06T13:35:10.613Z,50.87
2018-03-06T13:37:38.184Z,50.23
2018-03-06T13:40:05.806Z,49.69
2018-03-06T13:42:33.426Z,50.29
2018-03-06T13:45:00.989Z,50.03
2018-03-06T13:47:28.579Z,50.27
2018-03-06T13:49:56.217Z,49.14
2018-03-06T13:52:23.891Z,49.48
2018-03-06T13:54:51.516Z,48.91
2018-03-06T13:57:19.121Z,48.65
2018-03-06T13:59:46.733Z,48.77
2018-03-06T14:02:14.361Z,49.27
2018-03-06T14:04:41.986Z,48.87
2018-03-06T14:07:09.554Z,49.21
2018-03-06T14:09:37.155Z,48.76
2018-03-06T14:12:04.712Z,48.61
2018-03-06T14:14:32.457Z,48.05
2018-03-06T14:17:00.060Z,46.91
2018-03-06T14:19:27.682Z,47.38
2018-03-06T14:21:55.370Z,47.23
2018-03-06T14:24:22.970Z,46.56
2018-03-06T14:26:50.543Z,46.20
2018-03-06T14:29:18.168Z,47.13
2018-03-06T14:31:45.743Z,46.85
2018-03-06T14:34:13.423Z,46.35
2018-03-06T14:36:41.006Z,46.04
2018-03-06T14:39:08.598Z,45.56
2018-03-06T14:41:36.218Z,45.14
2018-03-06T14:44:03.825Z,44.51
2018-03-06T14:46:31.637Z,45.20
2018-03-06T14:48:59.256Z,44.91
2018-03-06T14:51:26.914Z,44.44
2018-03-06T14:53:54.547Z,44.46
2018-03-06T14:56:22.130Z,44.56
2018-03-06T14:58:49.759Z,45.00
2018-03-06T15:01:17.358Z,44.52
2018-03-06T15:03:45.107Z,44.90
2018-03-06T15:06:12.722Z,44.54
2018-03-06T15:08:40.322Z,44.30
2018-03-06T15:11:07.969Z,44.42
2018-03-06T15:13:35.680Z,44.50
2018-03-06T15:16:03.269Z,45.52
2018-03-06T15:18:30.850Z,45.78
2018-03-06T15:20:58.713Z,46.58
2018-03-06T15:23:26.543Z,46.93
2018-03-06T15:25:54.211Z,47.66
2018-03-06T15:28:21.856Z,47.94
2018-03-06T15:30:49.498Z,47.69
2018-03-06T15:33:17.254Z,48.19
2018-03-06T15:35:44.885Z,48.80
2018-03-06T15:38:12.523Z,49.28
2018-03-06T15:40:41.435Z,49.75
2018-03-06T15:43:10.533Z,49.87
2018-03-06T15:45:38.183Z,50.29
2018-03-06T15:48:06.047Z,50.40
2018-03-06T15:50:33.620Z,50.31
2018-03-06T15:53:01.256Z,50.53
2018-03-06T15:55:28.841Z,50.86
2018-03-06T15:57:57.847Z,51.20
2018-03-06T16:00:25.506Z,51.46
2018-03-06T16:02:53.165Z,51.40
2018-03-06T16:05:20.795Z,51.62
2018-03-06T16:07:48.691Z,51.84
2018-03-06T16:10:16.278Z,51.97
2018-03-06T16:12:43.888Z,52.34
2018-03-06T16:15:11.501Z,52.72
2018-03-06T16:17:39.090Z,53.08
2018-03-06T16:20:06.696Z,53.37
2018-03-06T16:22:34.347Z,53.55
2018-03-06T16:25:01.928Z,53.61
2018-03-06T16:27:29.530Z,53.71
2018-03-06T16:29:57.170Z,53.75
2018-03-06T16:32:24.742Z,53.85
2018-03-06T16:34:52.351Z,53.91
2018-03-06T16:37:19.997Z,53.96
2018-03-06T16:39:47.585Z,54.01
2018-03-06T16:42:15.210Z,54.08
2018-03-06T16:44:42.821Z,54.12
2018-03-06T16:47:10.433Z,54.22
2018-03-06T16:49:38.051Z,54.43
2018-03-06T16:52:06.439Z,54.69
2018-03-06T16:54:34.060Z,54.77
2018-03-06T16:57:01.631Z,54.89
2018-03-06T16:59:29.211Z,55.02
2018-03-06T17:01:56.836Z,55.09
2018-03-06T17:04:24.455Z,55.13
2018-03-06T17:06:52.092Z,55.24
2018-03-06T17:09:19.739Z,55.34
2018-03-06T17:11:47.489Z,55.42
2018-03-06T17:14:15.097Z,55.50
2018-03-06T17:16:42.759Z,55.58
2018-03-06T17:19:10.399Z,55.61
2018-03-06T17:21:37.961Z,55.69
2018-03-06T17:24:05.604Z,55.78
2018-03-06T17:26:33.171Z,55.98
2018-03-06T17:29:00.754Z,56.32
2018-03-06T17:31:28.435Z,56.64
2018-03-06T17:33:56.032Z,56.79
2018-03-06T17:36:23.629Z,56.86
2018-03-06T17:38:51.363Z,56.90
2018-03-06T17:41:19.320Z,56.91
2018-03-06T17:43:46.960Z,56.90
2018-03-06T17:46:14.580Z,56.86
2018-03-06T17:48:42.172Z,56.97
2018-03-06T17:51:09.738Z,57.06
2018-03-06T17:53:37.523Z,57.30
2018-03-06T17:56:05.090Z,57.49
2018-03-06T17:58:32.705Z,57.58
2018-03-06T18:01:00.345Z,57.64
2018-03-06T18:03:27.956Z,57.71
2018-03-06T18:05:55.536Z,57.77
2018-03-06T18:08:23.216Z,57.97
2018-03-06T18:10:50.824Z,58.21
2018-03-06T18:13:18.405Z,58.42
2018-03-06T18:15:46.053Z,58.83
2018-03-06T18:18:13.632Z,59.65
2018-03-06T18:20:41.313Z,60.66
2018-03-06T18:23:09.024Z,61.25
2018-03-06T18:25:36.623Z,61.71
2018-03-06T18:28:04.294Z,62.63
2018-03-06T18:30:31.988Z,63.07
2018-03-06T18:32:59.625Z,63.38
2018-03-06T18:35:27.856Z,64.25
2018-03-06T18:37:55.639Z,65.42
2018-03-06T18:40:23.666Z,66.02
2018-03-06T18:42:51.250Z,66.53
2018-03-06T18:45:18.853Z,66.71
2018-03-06T18:47:46.516Z,67.54
2018-03-06T18:50:22.885Z,67.37
2018-03-06T18:52:56.072Z,67.59
2018-03-06T18:55:23.691Z,67.56
2018-03-06T18:57:51.421Z,67.78
2018-03-06T19:03:48.870Z,67.60
2018-03-06T19:06:24.301Z,67.90
2018-03-06T19:08:52.053Z,67.80
2018-03-06T19:11:20.843Z,68.00
2018-03-06T19:13:48.734Z,67.98
2018-03-06T19:16:16.344Z,68.01
2018-03-06T19:18:49.209Z,67.95
2018-03-06T19:21:21.943Z,67.97
2018-03-06T19:23:50.281Z,68.19
2018-03-06T19:26:17.953Z,68.34
2018-03-06T19:28:45.541Z,68.96
2018-03-06T19:31:13.117Z,69.14
2018-03-06T19:33:40.762Z,69.48
2018-03-06T19:36:08.349Z,69.39
2018-03-06T19:38:35.905Z,69.57
2018-03-06T19:41:03.631Z,69.51
2018-03-06T19:43:31.230Z,69.75
2018-03-06T19:45:58.810Z,69.99
2018-03-06T19:48:26.475Z,69.94
2018-03-06T19:50:54.054Z,69.99
2018-03-06T19:53:21.651Z,70.11
2018-03-06T19:55:49.281Z,70.02
2018-03-06T19:58:16.898Z,70.19
2018-03-06T20:00:44.536Z,70.43
2018-03-06T20:03:12.149Z,70.56
2018-03-06T20:05:42.091Z,70.67
2018-03-06T20:08:09.723Z,70.71
2018-03-06T20:10:37.337Z,70.85
2018-03-06T20:13:04.909Z,70.84
2018-03-06T20:15:32.587Z,70.82
2018-03-06T20:18:00.453Z,70.79
2018-03-06T20:20:28.036Z,70.78
2018-03-06T20:22:55.633Z,70.89
2018-03-06T20:25:28.783Z,70.93
2018-03-06T20:27:56.418Z,70.85
2018-03-06T20:30:29.657Z,70.87
2018-03-06T20:33:02.892Z,71.03
2018-03-06T20:35:30.526Z,71.19
2018-03-06T20:37:58.099Z,71.68
2018-03-06T20:40:31.113Z,71.91
2018-03-06T20:42:58.731Z,72.10
2018-03-06T20:45:26.413Z,72.00
2018-03-06T20:47:54.013Z,72.35
2018-03-06T20:50:21.585Z,72.44
2018-03-06T20:52:51.841Z,72.56
2018-03-06T20:55:19.394Z,73.03
2018-03-06T20:57:47.309Z,72.94
2018-03-06T21:00:14.970Z,73.07
2018-03-06T21:02:42.838Z,73.49
2018-03-06T21:05:10.473Z,73.61
2018-03-06T21:07:38.130Z,73.77
2018-03-06T21:10:05.715Z,73.81
2018-03-06T21:12:33.565Z,73.85
2018-03-06T21:15:01.444Z,73.96
2018-03-06T21:17:29.038Z,74.05
2018-03-06T21:19:56.590Z,74.08
2018-03-06T21:22:24.317Z,74.49
2018-03-06T21:24:51.883Z,74.55
2018-03-06T21:27:19.871Z,74.72
2018-03-06T21:29:47.456Z,74.76
2018-03-06T21:32:15.042Z,74.77
2018-03-06T21:34:42.665Z,74.81
2018-03-06T21:37:10.222Z,74.83
2018-03-06T21:39:37.785Z,74.96
2018-03-06T21:42:05.394Z,75.00
2018-03-06T21:44:32.954Z,74.92
2018-03-06T21:47:00.559Z,74.87
2018-03-06T21:49:28.225Z,74.81
2018-03-06T21:51:55.816Z,74.93
2018-03-06T21:54:23.931Z,74.93
2018-03-06T21:56:52.195Z,75.00
2018-03-06T21:59:20.247Z,74.98
2018-03-06T22:01:47.824Z,74.94
2018-03-06T22:04:15.442Z,74.88
2018-03-06T22:06:43.097Z,74.72
2018-03-06T22:09:10.962Z,74.87
2018-03-06T22:11:38.513Z,75.14
2018-03-06T22:14:06.106Z,75.23
2018-03-06T22:16:33.726Z,75.28
2018-03-06T22:19:01.333Z,75.25
2018-03-06T22:21:29.199Z,75.80
2018-03-06T22:23:56.827Z,75.99
2018-03-06T22:26:24.385Z,76.14
2018-03-06T22:28:52.117Z,76.28
2018-03-06T22:31:19.699Z,76.51
2018-03-06T22:33:47.354Z,76.45
2018-03-06T22:36:15.008Z,76.46
2018-03-06T22:38:42.589Z,76.62
2018-03-06T22:41:10.165Z,76.67
2018-03-06T22:43:37.835Z,76.76
2018-03-06T22:46:05.472Z,76.94
2018-03-06T22:48:33.116Z,77.17
2018-03-06T22:51:00.833Z,77.09
2018-03-06T22:53:28.415Z,77.03
2018-03-06T22:55:56.017Z,77.20
2018-03-06T22:58:23.820Z,77.30
2018-03-06T23:00:51.400Z,77.52
2018-03-06T23:03:19.008Z,77.52
2018-03-06T23:05:54.872Z,77.69
2018-03-06T23:08:22.507Z,77.75
2018-03-06T23:10:50.152Z,77.75
2018-03-06T23:15:44.674Z,77.88
2018-03-06T23:18:12.307Z,77.91
2018-03-06T23:20:39.885Z,77.91
2018-03-06T23:23:07.537Z,77.95
2018-03-06T23:25:35.149Z,78.21
2018-03-06T23:28:03.110Z,78.34
2018-03-06T23:30:30.750Z,78.38
2018-03-06T23:32:58.338Z,78.38
2018-03-06T23:35:25.998Z,78.38
2018-03-06T23:37:53.870Z,78.37
2018-03-06T23:40:21.448Z,78.34
2018-03-06T23:42:49.045Z,78.36
2018-03-06T23:45:16.767Z,78.36
2018-03-06T23:47:44.615Z,78.38
2018-03-06T23:50:12.223Z,78.48
2018-03-06T23:52:39.841Z,78.40
2018-03-06T23:55:14.191Z,78.42
2018-03-06T23:57:41.791Z,78.63
